createdAt,value
2018-06-03T00:00:10.241Z,47.40
2018-06-03T00:02:39.392Z,49.40
2018-06-03T00:05:09.446Z,46.17
2018-06-03T00:07:39.033Z,50.40
2018-06-03T00:10:08.312Z,48.37
2018-06-03T00:12:36.471Z,51.27
2018-06-03T00:15:04.667Z,51.07
2018-06-03T00:17:33.158Z,48.83
2018-06-03T00:20:01.442Z,46.70
2018-06-03T00:22:32.299Z,51.53
2018-06-03T00:25:00.550Z,53.67
2018-06-03T00:27:29.038Z,49.83
2018-06-03T00:29:57.459Z,53.97
2018-06-03T00:32:26.598Z,56.17
2018-06-03T00:34:55.546Z,53.10
2018-06-03T00:37:23.942Z,54.87
2018-06-03T00:39:52.466Z,51.37
2018-06-03T00:42:20.649Z,49.13
2018-06-03T00:44:49.751Z,54.23
2018-06-03T00:47:18.287Z,54.67
2018-06-03T00:49:46.676Z,50.30
2018-06-03T00:52:15.341Z,56.87
2018-06-03T00:54:44.494Z,54.27
2018-06-03T00:57:13.422Z,53.93
2018-06-03T00:59:42.068Z,53.53
2018-06-03T01:02:11.217Z,54.90
2018-06-03T01:04:40.264Z,56.13
2018-06-03T01:07:08.438Z,52.27
2018-06-03T01:09:36.899Z,57.73
2018-06-03T01:12:05.528Z,56.63
2018-06-03T01:14:34.371Z,51.13
2018-06-03T01:17:03.524Z,51.33
2018-06-03T01:19:32.046Z,52.10
2018-06-03T01:22:00.211Z,56.43
2018-06-03T01:24:28.431Z,50.70
2018-06-03T01:26:56.624Z,48.87
2018-06-03T01:29:25.259Z,54.13
2018-06-03T01:31:53.362Z,51.80
2018-06-03T01:34:21.615Z,49.17
2018-06-03T01:36:50.463Z,50.53
2018-06-03T01:39:19.833Z,51.97
2018-06-03T01:41:48.254Z,47.93
2018-06-03T01:44:16.435Z,49.37
2018-06-03T01:46:45.430Z,45.53
2018-06-03T01:49:13.663Z,44.43
2018-06-03T01:51:42.150Z,45.97
2018-06-03T01:54:11.406Z,43.07
2018-06-03T01:56:40.374Z,44.13
2018-06-03T01:59:10.119Z,43.23
2018-06-03T02:01:39.063Z,47.33
2018-06-03T02:04:08.215Z,48.60
2018-06-03T02:06:36.427Z,46.90
2018-06-03T02:09:05.583Z,43.60
2018-06-03T02:11:34.220Z,44.10
2018-06-03T02:14:02.814Z,46.80
2018-06-03T02:16:31.375Z,46.13
2018-06-03T02:18:59.532Z,43.60
2018-06-03T02:21:28.009Z,48.77
2018-06-03T02:23:56.317Z,47.53
2018-06-03T02:26:24.510Z,41.67
2018-06-03T02:28:53.583Z,43.93
2018-06-03T02:31:22.112Z,46.47
2018-06-03T02:33:51.671Z,43.17
2018-06-03T02:36:20.208Z,44.47
2018-06-03T02:38:48.392Z,43.50
2018-06-03T02:41:16.622Z,39.40
2018-06-03T02:43:45.263Z,42.20
2018-06-03T02:46:13.420Z,41.50
2018-06-03T02:48:41.971Z,44.43
2018-06-03T02:51:10.944Z,41.77
2018-06-03T02:53:39.094Z,42.47
2018-06-03T02:56:07.682Z,42.17
2018-06-03T02:58:36.312Z,47.57
2018-06-03T03:01:04.943Z,40.87
2018-06-03T03:03:33.771Z,41.63
2018-06-03T03:06:02.202Z,45.73
2018-06-03T03:08:30.362Z,50.20
2018-06-03T03:10:58.584Z,68.63
2018-06-03T03:13:27.018Z,55.73
2018-06-03T03:15:56.305Z,74.57
2018-06-03T03:18:25.562Z,63.20
2018-06-03T03:20:55.654Z,66.27
2018-06-03T03:23:24.180Z,68.27
2018-06-03T03:25:52.354Z,75.53
2018-06-03T03:28:20.777Z,72.20
2018-06-03T03:30:49.236Z,71.20
2018-06-03T03:33:18.379Z,71.80
2018-06-03T03:35:46.575Z,65.97
2018-06-03T03:38:15.335Z,76.60
2018-06-03T03:40:44.173Z,73.83
2018-06-03T03:43:12.804Z,72.27
2018-06-03T03:45:41.330Z,66.67
2018-06-03T03:48:10.575Z,70.27
2018-06-03T03:50:39.221Z,67.00
2018-06-03T03:53:08.359Z,60.67
2018-06-03T03:55:37.522Z,54.87
2018-06-03T03:58:06.662Z,59.83
2018-06-03T04:00:35.199Z,56.90
2018-06-03T04:03:03.362Z,54.93
2018-06-03T04:05:31.574Z,53.27
2018-06-03T04:08:00.777Z,61.07
2018-06-03T04:10:29.406Z,59.57
2018-06-03T04:12:58.039Z,56.50
2018-06-03T04:15:26.195Z,60.00
2018-06-03T04:17:54.673Z,54.70
2018-06-03T04:20:23.994Z,60.83
2018-06-03T04:22:52.766Z,63.40
2018-06-03T04:25:21.396Z,62.77
2018-06-03T04:27:49.558Z,60.50
2018-06-03T04:30:19.318Z,66.90
2018-06-03T04:32:47.514Z,65.53
2018-06-03T04:35:17.588Z,66.33
2018-06-03T04:37:46.740Z,68.10
2018-06-03T04:40:15.162Z,69.13
2018-06-03T04:42:43.990Z,70.80
2018-06-03T04:45:14.604Z,67.73
2018-06-03T04:47:44.330Z,71.17
2018-06-03T04:50:12.522Z,65.67
2018-06-03T04:52:41.132Z,69.83
2018-06-03T04:55:09.784Z,69.57
2018-06-03T04:57:38.184Z,63.60
2018-06-03T05:00:06.814Z,68.87
2018-06-03T05:02:35.237Z,68.03
2018-06-03T05:05:03.866Z,76.87
2018-06-03T05:07:32.391Z,64.27
2018-06-03T05:10:00.544Z,77.00
2018-06-03T05:12:29.025Z,68.83
2018-06-03T05:14:57.191Z,69.83
2018-06-03T05:17:25.387Z,76.27
2018-06-03T05:19:53.835Z,74.40
2018-06-03T05:23:11.347Z,69.43
2018-06-03T05:25:41.150Z,73.40
2018-06-03T05:28:11.871Z,69.50
2018-06-03T05:30:41.930Z,69.07
2018-06-03T05:33:13.019Z,71.47
2018-06-03T05:35:42.583Z,67.97
2018-06-03T05:38:12.533Z,64.20
2018-06-03T05:40:43.103Z,67.03
2018-06-03T05:43:13.031Z,63.03
2018-06-03T05:45:43.954Z,60.33
2018-06-03T05:48:14.579Z,65.07
2018-06-03T05:50:45.887Z,69.17
2018-06-03T05:53:15.875Z,67.97
2018-06-03T05:55:45.142Z,69.37
2018-06-03T05:58:14.557Z,66.27
2018-06-03T06:00:45.397Z,76.43
2018-06-03T06:03:16.839Z,68.33
2018-06-03T06:05:46.646Z,66.93
2018-06-03T06:08:16.256Z,68.67
2018-06-03T06:10:46.094Z,65.10
2018-06-03T06:13:16.407Z,66.27
2018-06-03T06:15:46.707Z,65.63
2018-06-03T06:18:16.497Z,68.50
2018-06-03T06:20:45.535Z,69.00
2018-06-03T06:23:15.586Z,68.20
2018-06-03T06:25:45.158Z,64.57
2018-06-03T06:28:15.738Z,69.20
2018-06-03T06:30:46.075Z,66.80
2018-06-03T06:33:17.596Z,71.83
2018-06-03T06:35:47.543Z,71.30
2018-06-03T06:38:17.887Z,74.03
2018-06-03T06:40:47.508Z,72.37
2018-06-03T06:43:17.738Z,79.00
2018-06-03T06:45:48.155Z,79.93
2018-06-03T06:48:19.308Z,70.63
2018-06-03T06:50:49.318Z,69.83
2018-06-03T06:53:18.946Z,74.43
2018-06-03T06:55:49.158Z,68.10
2018-06-03T06:58:19.327Z,62.80
2018-06-03T07:00:49.586Z,64.63
2018-06-03T07:03:19.534Z,62.73
2018-06-03T07:05:49.607Z,66.40
2018-06-03T07:08:20.363Z,68.20
2018-06-03T07:10:51.524Z,70.93
2018-06-03T07:13:21.487Z,68.47
2018-06-03T07:15:51.922Z,69.30
2018-06-03T07:18:22.390Z,69.77
2018-06-03T07:20:52.471Z,68.67
2018-06-03T07:23:22.012Z,66.13
2018-06-03T07:25:52.875Z,67.43
2018-06-03T07:28:23.727Z,67.53
2018-06-03T07:30:54.395Z,68.77
2018-06-03T07:33:25.047Z,65.90
2018-06-03T07:35:55.554Z,69.10
2018-06-03T07:38:26.639Z,63.07
2018-06-03T07:40:56.539Z,63.00
2018-06-03T07:43:26.064Z,62.67
2018-06-03T07:45:56.264Z,62.63
2018-06-03T07:48:26.155Z,60.57
2018-06-03T07:50:56.428Z,69.80
2018-06-03T07:53:27.593Z,69.13
2018-06-03T07:55:58.879Z,63.20
2018-06-03T07:58:29.903Z,67.17
2018-06-03T08:00:59.099Z,65.93
2018-06-03T08:03:29.003Z,57.40
2018-06-03T08:05:58.873Z,64.67
2018-06-03T08:08:30.618Z,61.50
2018-06-03T08:11:01.019Z,59.80
2018-06-03T08:13:32.010Z,59.27
2018-06-03T08:16:02.326Z,57.60
2018-06-03T08:18:32.983Z,67.07
2018-06-03T08:21:03.856Z,58.17
2018-06-03T08:23:33.076Z,64.70
2018-06-03T08:26:03.178Z,57.67
2018-06-03T08:28:35.147Z,57.17
2018-06-03T08:31:06.476Z,53.07
2018-06-03T08:33:36.615Z,58.10
2018-06-03T08:36:06.823Z,58.90
2018-06-03T08:38:38.147Z,50.90
2018-06-03T08:41:07.848Z,58.07
2018-06-03T08:43:37.794Z,52.77
2018-06-03T08:46:08.267Z,50.03
2018-06-03T08:48:39.943Z,47.93
2018-06-03T08:51:09.944Z,53.33
2018-06-03T08:53:40.336Z,48.53
2018-06-03T08:56:09.493Z,46.43
2018-06-03T08:58:40.008Z,48.37
2018-06-03T09:01:09.997Z,49.87
2018-06-03T09:03:39.273Z,52.50
2018-06-03T09:06:10.283Z,47.83
2018-06-03T09:08:41.591Z,45.00
2018-06-03T09:11:11.175Z,50.03
2018-06-03T09:13:41.091Z,53.40
2018-06-03T09:16:11.622Z,54.57
2018-06-03T09:18:41.066Z,51.50
2018-06-03T09:21:11.200Z,53.20
2018-06-03T09:23:41.023Z,57.37
2018-06-03T09:26:10.971Z,53.97
2018-06-03T09:28:40.127Z,57.23
2018-06-03T09:31:09.857Z,52.80
2018-06-03T09:33:40.627Z,59.20
2018-06-03T09:36:10.636Z,54.13
2018-06-03T09:38:40.934Z,56.83
2018-06-03T09:41:10.871Z,51.20
2018-06-03T09:43:41.215Z,52.97
2018-06-03T09:46:11.891Z,49.30
2018-06-03T09:48:43.570Z,46.97
2018-06-03T09:51:13.395Z,53.23
2018-06-03T09:53:43.267Z,56.00
2018-06-03T09:56:13.385Z,56.87
2018-06-03T09:58:43.651Z,53.00
2018-06-03T10:01:13.843Z,54.07
2018-06-03T10:03:44.487Z,51.70
2018-06-03T10:06:14.611Z,54.07
2018-06-03T10:08:44.696Z,53.00
2018-06-03T10:11:16.036Z,48.17
2018-06-03T10:13:45.478Z,43.53
2018-06-03T10:16:15.219Z,49.70
2018-06-03T10:18:44.851Z,44.67
2018-06-03T10:21:14.723Z,51.93
2018-06-03T10:23:45.560Z,42.10
2018-06-03T10:26:16.061Z,47.70
2018-06-03T10:28:46.836Z,45.47
2018-06-03T10:31:22.732Z,47.30
2018-06-03T10:33:52.803Z,45.83
2018-06-03T10:36:23.076Z,48.00
2018-06-03T10:38:53.722Z,46.17
2018-06-03T10:41:23.935Z,47.77
2018-06-03T10:43:53.526Z,46.87
2018-06-03T10:46:24.343Z,47.23
2018-06-03T10:48:54.723Z,45.03
2018-06-03T10:51:25.348Z,45.37
2018-06-03T10:53:55.767Z,43.30
2018-06-03T10:56:24.945Z,43.57
2018-06-03T10:58:54.647Z,43.57
2018-06-03T11:01:24.743Z,43.27
2018-06-03T11:03:55.814Z,38.60
2018-06-03T11:06:25.178Z,43.03
2018-06-03T11:08:55.466Z,37.97
2018-06-03T11:11:26.327Z,41.73
2018-06-03T11:13:57.110Z,39.57
2018-06-03T11:16:27.019Z,43.43
2018-06-03T11:18:57.762Z,36.90
2018-06-03T11:21:28.258Z,39.00
2018-06-03T11:23:57.383Z,33.57
2018-06-03T11:26:27.268Z,36.03
2018-06-03T11:28:57.839Z,36.73
2018-06-03T11:31:27.456Z,31.23
2018-06-03T11:33:57.487Z,30.17
2018-06-03T11:36:26.626Z,31.47
2018-06-03T11:38:56.479Z,34.37
2018-06-03T11:41:26.660Z,33.43
2018-06-03T11:43:57.124Z,31.80
2018-06-03T11:46:28.949Z,31.70
2018-06-03T11:48:58.770Z,30.73
2018-06-03T11:51:28.694Z,29.57
2018-06-03T11:53:58.482Z,25.73
2018-06-03T11:56:38.858Z,30.90
2018-06-03T11:59:17.585Z,29.50
2018-06-03T12:01:47.200Z,31.90
2018-06-03T12:04:16.591Z,29.37
2018-06-03T12:06:46.686Z,31.37
2018-06-03T12:09:16.871Z,25.73
2018-06-03T12:11:46.730Z,27.57
2018-06-03T12:14:15.978Z,29.37
2018-06-03T12:16:45.442Z,30.70
2018-06-03T12:19:15.191Z,31.57
2018-06-03T12:21:45.902Z,35.57
2018-06-03T12:24:15.310Z,35.17
2018-06-03T12:26:45.087Z,29.83
2018-06-03T12:29:15.444Z,34.33
2018-06-03T12:31:44.930Z,28.87
2018-06-03T12:34:14.805Z,31.10
2018-06-03T12:36:45.277Z,27.90
2018-06-03T12:39:16.412Z,33.63
2018-06-03T12:41:47.121Z,30.77
2018-06-03T12:44:18.471Z,37.53
2018-06-03T12:46:49.236Z,29.83
2018-06-03T12:49:19.441Z,29.33
2018-06-03T12:51:49.103Z,30.17
2018-06-03T12:54:18.576Z,26.13
2018-06-03T12:56:48.008Z,25.30
2018-06-03T12:59:18.171Z,25.80
2018-06-03T13:01:48.931Z,28.13
2018-06-03T13:04:18.335Z,29.70
2018-06-03T13:06:47.970Z,29.43
2018-06-03T13:09:18.230Z,25.87
2018-06-03T13:11:49.931Z,25.67
2018-06-03T13:14:19.979Z,25.93
2018-06-03T13:16:49.555Z,26.80
2018-06-03T13:19:19.903Z,26.90
2018-06-03T13:21:49.839Z,27.53
2018-06-03T13:24:20.166Z,26.97
2018-06-03T13:26:50.902Z,25.87
2018-06-03T13:29:21.187Z,21.10
2018-06-03T13:31:51.910Z,26.33
2018-06-03T13:34:21.652Z,23.67
2018-06-03T13:36:51.375Z,22.40
2018-06-03T13:39:21.003Z,26.27
2018-06-03T13:41:50.178Z,24.97
2018-06-03T13:44:20.281Z,25.17
2018-06-03T13:46:50.622Z,20.47
2018-06-03T13:49:21.148Z,21.70
2018-06-03T13:51:51.611Z,21.73
2018-06-03T13:54:21.837Z,19.77
2018-06-03T13:56:51.964Z,20.70
2018-06-03T13:59:21.395Z,19.23
2018-06-03T14:01:51.142Z,16.90
2018-06-03T14:04:22.103Z,14.70
2018-06-03T14:06:52.091Z,16.97
2018-06-03T14:09:21.869Z,19.23
2018-06-03T14:11:52.929Z,14.70
2018-06-03T14:14:22.775Z,15.20
2018-06-03T14:16:52.540Z,20.47
2018-06-03T14:19:23.711Z,22.37
2018-06-03T14:21:54.306Z,20.00
2018-06-03T14:24:23.818Z,17.23
2018-06-03T14:26:54.547Z,14.63
2018-06-03T14:29:24.926Z,14.47
2018-06-03T14:31:54.942Z,11.97
2018-06-03T14:34:24.732Z,14.17
2018-06-03T14:36:54.211Z,15.00
2018-06-03T14:39:23.990Z,12.27
2018-06-03T14:41:54.287Z,13.53
2018-06-03T14:44:23.890Z,15.93
2018-06-03T14:46:53.602Z,16.03
2018-06-03T14:49:22.719Z,11.80
2018-06-03T14:51:52.731Z,15.63
2018-06-03T14:54:24.166Z,10.87
2018-06-03T14:56:53.460Z,11.20
2018-06-03T14:59:23.565Z,15.23
2018-06-03T15:01:53.986Z,12.80
2018-06-03T15:04:24.625Z,11.80
2018-06-03T15:06:55.606Z,11.57
2018-06-03T15:09:25.591Z,10.63
2018-06-03T15:11:56.128Z,11.10
2018-06-03T15:14:25.996Z,11.93
2018-06-03T15:16:55.880Z,10.40
2018-06-03T15:19:25.355Z,11.80
2018-06-03T15:21:55.755Z,9.90
2018-06-03T15:24:26.293Z,12.03
2018-06-03T15:26:55.795Z,10.33
2018-06-03T15:29:25.757Z,10.63
2018-06-03T15:31:55.127Z,12.30
2018-06-03T15:34:25.703Z,10.90
2018-06-03T15:36:55.941Z,11.33
2018-06-03T15:39:25.411Z,11.37
2018-06-03T15:41:55.538Z,12.83
2018-06-03T15:44:25.910Z,11.27
2018-06-03T15:46:55.796Z,11.60
2018-06-03T15:49:25.055Z,10.87
2018-06-03T15:51:54.627Z,11.83
2018-06-03T15:54:25.611Z,11.83
2018-06-03T15:56:54.725Z,12.57
2018-06-03T15:59:23.844Z,12.30
2018-06-03T16:01:53.606Z,9.83
2018-06-03T16:04:23.852Z,10.93
2018-06-03T16:06:53.780Z,11.30
2018-06-03T16:09:22.883Z,10.90
2018-06-03T16:11:55.559Z,10.93
2018-06-03T16:14:26.112Z,11.57
2018-06-03T16:16:56.402Z,10.57
2018-06-03T16:19:25.947Z,11.27
2018-06-03T16:21:55.649Z,11.03
2018-06-03T16:24:26.475Z,10.93
2018-06-03T16:26:57.115Z,11.47
2018-06-03T16:29:26.969Z,11.53
2018-06-03T16:31:56.356Z,10.50
2018-06-03T16:34:25.887Z,11.00
2018-06-03T16:36:56.683Z,10.67
2018-06-03T16:39:28.407Z,10.63
2018-06-03T16:41:58.844Z,10.50
2018-06-03T16:44:29.593Z,8.93
2018-06-03T16:47:00.625Z,11.20
2018-06-03T16:49:30.655Z,10.53
2018-06-03T16:51:59.838Z,9.43
2018-06-03T16:54:30.583Z,10.50
2018-06-03T16:57:00.227Z,10.77
2018-06-03T16:59:30.540Z,8.97
2018-06-03T17:02:00.864Z,9.37
2018-06-03T17:04:31.986Z,8.87
2018-06-03T17:07:03.858Z,9.40
2018-06-03T17:09:33.961Z,8.90
2018-06-03T17:12:04.026Z,9.33
2018-06-03T17:14:34.201Z,8.80
2018-06-03T17:17:04.665Z,8.63
2018-06-03T17:19:34.354Z,8.77
2018-06-03T17:22:04.528Z,8.07
2018-06-03T17:24:33.890Z,8.43
2018-06-03T17:27:03.878Z,8.37
2018-06-03T17:29:34.047Z,8.97
2018-06-03T17:32:03.540Z,8.37
2018-06-03T17:34:33.503Z,9.10
2018-06-03T17:37:03.375Z,8.53
2018-06-03T17:39:34.096Z,9.43
2018-06-03T17:42:04.860Z,8.60
2018-06-03T17:44:34.836Z,10.17
2018-06-03T17:47:05.982Z,8.37
2018-06-03T17:49:35.227Z,8.87
2018-06-03T17:52:04.410Z,9.90
2018-06-03T17:54:35.205Z,8.97
2018-06-03T17:57:05.363Z,10.90
2018-06-03T17:59:36.578Z,9.10
2018-06-03T18:02:06.288Z,8.70
2018-06-03T18:04:36.103Z,8.63
2018-06-03T18:07:05.875Z,9.40
2018-06-03T18:09:36.566Z,9.90
2018-06-03T18:12:06.451Z,8.87
2018-06-03T18:14:36.047Z,8.17
2018-06-03T18:17:05.624Z,8.40
2018-06-03T18:19:35.357Z,9.57
2018-06-03T18:22:05.451Z,9.37
2018-06-03T18:24:35.012Z,8.87
2018-06-03T18:27:05.175Z,10.07
2018-06-03T18:29:35.870Z,8.57
2018-06-03T18:32:06.346Z,10.00
2018-06-03T18:34:36.198Z,7.87
2018-06-03T18:37:07.327Z,9.80
2018-06-03T18:39:39.276Z,10.17
2018-06-03T18:42:08.780Z,9.60
2018-06-03T18:44:38.722Z,11.63
2018-06-03T18:47:07.978Z,8.67
2018-06-03T18:49:38.575Z,7.83
2018-06-03T18:52:09.911Z,8.73
2018-06-03T18:54:40.349Z,8.17
2018-06-03T18:57:10.743Z,8.80
2018-06-03T18:59:42.088Z,8.17
2018-06-03T19:02:12.278Z,7.43
2018-06-03T19:04:41.710Z,10.00
2018-06-03T19:07:10.902Z,7.50
2018-06-03T19:09:41.572Z,10.73
2018-06-03T19:12:11.650Z,8.37
2018-06-03T19:14:42.723Z,7.60
2018-06-03T19:17:12.627Z,8.77
2018-06-03T19:19:43.495Z,8.57
2018-06-03T19:22:13.875Z,8.40
2018-06-03T19:24:44.797Z,8.27
2018-06-03T19:27:14.497Z,8.60
2018-06-03T19:29:43.699Z,8.30
2018-06-03T19:32:15.770Z,9.97
2018-06-03T19:34:46.514Z,10.27
2018-06-03T19:37:16.620Z,8.73
2018-06-03T19:39:46.987Z,8.33
2018-06-03T19:42:17.011Z,7.90
2018-06-03T19:44:48.086Z,8.30
2018-06-03T19:47:18.539Z,8.67
2018-06-03T19:49:48.551Z,9.20
2018-06-03T19:52:19.409Z,11.80
2018-06-03T19:54:49.802Z,8.17
2018-06-03T19:57:20.811Z,8.97
2018-06-03T19:59:51.449Z,8.83
2018-06-03T20:02:21.331Z,8.53
2018-06-03T20:04:50.762Z,9.83
2018-06-03T20:07:20.964Z,9.93
2018-06-03T20:09:52.356Z,9.83
2018-06-03T20:12:22.401Z,9.90
2018-06-03T20:14:52.721Z,9.90
2018-06-03T20:17:21.890Z,10.30
2018-06-03T20:19:51.357Z,9.67
2018-06-03T20:22:20.891Z,9.97
2018-06-03T20:24:52.523Z,12.10
2018-06-03T20:27:23.039Z,13.83
2018-06-03T20:29:52.632Z,12.13
2018-06-03T20:32:23.487Z,10.63
2018-06-03T20:34:53.643Z,10.13
2018-06-03T20:37:24.438Z,13.10
2018-06-03T20:39:55.163Z,11.97
2018-06-03T20:42:26.167Z,12.13
2018-06-03T20:44:56.632Z,13.57
2018-06-03T20:47:27.038Z,11.87
2018-06-03T20:49:58.338Z,12.27
2018-06-03T20:52:28.278Z,12.03
2018-06-03T20:54:57.867Z,12.97
2018-06-03T20:57:27.662Z,15.20
2018-06-03T20:59:59.279Z,13.97
2018-06-03T21:02:29.651Z,14.63
2018-06-03T21:04:59.540Z,13.10
2018-06-03T21:07:29.766Z,14.50
2018-06-03T21:10:00.467Z,13.60
2018-06-03T21:12:32.430Z,13.57
2018-06-03T21:15:02.383Z,14.50
2018-06-03T21:17:32.535Z,14.67
2018-06-03T21:20:02.771Z,14.33
2018-06-03T21:22:32.227Z,15.37
2018-06-03T21:25:02.567Z,12.80
2018-06-03T21:27:33.467Z,14.70
2018-06-03T21:30:03.450Z,13.43
2018-06-03T21:32:33.679Z,13.90
2018-06-03T21:35:03.434Z,15.90
2018-06-03T21:37:33.515Z,13.80
2018-06-03T21:40:03.394Z,12.60
2018-06-03T21:42:33.526Z,13.53
2018-06-03T21:45:04.967Z,13.43
2018-06-03T21:47:34.792Z,13.60
2018-06-03T21:50:04.403Z,13.73
2018-06-03T21:52:34.182Z,13.67
2018-06-03T21:55:04.016Z,14.70
2018-06-03T21:57:33.206Z,13.00
2018-06-03T22:00:02.826Z,16.17
2018-06-03T22:02:33.049Z,13.87
2018-06-03T22:05:02.831Z,13.93
2018-06-03T22:07:33.789Z,14.70
2018-06-03T22:10:03.918Z,14.33
2018-06-03T22:12:35.731Z,12.43
2018-06-03T22:15:04.834Z,13.47
2018-06-03T22:17:35.039Z,13.80
2018-06-03T22:20:04.495Z,13.53
2018-06-03T22:22:35.694Z,14.57
2018-06-03T22:25:05.694Z,12.83
2018-06-03T22:27:36.375Z,13.60
2018-06-03T22:30:06.764Z,15.90
2018-06-03T22:32:36.554Z,15.33
2018-06-03T22:35:07.691Z,14.23
2018-06-03T22:37:36.951Z,13.10
2018-06-03T22:40:07.742Z,17.47
2018-06-03T22:42:37.766Z,16.87
2018-06-03T22:45:08.411Z,13.80
2018-06-03T22:47:37.594Z,13.60
2018-06-03T22:50:07.914Z,16.33
2018-06-03T22:52:38.977Z,13.90
2018-06-03T22:55:09.139Z,16.63
2018-06-03T22:57:48.895Z,17.60
2018-06-03T23:00:22.310Z,14.87
2018-06-03T23:02:57.503Z,15.47
2018-06-03T23:05:27.575Z,18.00
2018-06-03T23:07:57.739Z,18.37
2018-06-03T23:10:27.394Z,14.97
2018-06-03T23:12:57.719Z,17.17
2018-06-03T23:15:28.500Z,17.60
2018-06-03T23:17:59.602Z,15.80
2018-06-03T23:20:28.860Z,17.30
2018-06-03T23:22:58.899Z,18.50
2018-06-03T23:25:28.103Z,18.47
2018-06-03T23:27:57.709Z,21.20
2018-06-03T23:30:26.847Z,20.20
2018-06-03T23:32:56.371Z,18.87
2018-06-03T23:35:25.792Z,20.30
2018-06-03T23:37:56.407Z,18.90
2018-06-03T23:40:26.813Z,20.03
2018-06-03T23:42:56.702Z,20.73
2018-06-03T23:45:26.538Z,18.33
2018-06-03T23:47:57.626Z,19.27
2018-06-03T23:50:27.115Z,17.37
2018-06-03T23:52:56.316Z,22.07
2018-06-03T23:55:25.394Z,22.77
2018-06-03T23:57:54.623Z,19.27
